createdAt,value
2022-07-25T00:00:56.307Z,96007.59
2022-07-25T00:05:59.424Z,96013.13
2022-07-25T00:11:02.295Z,96004.88
2022-07-25T00:16:07.342Z,96009.31
2022-07-25T00:21:10.490Z,96009.03
2022-07-25T00:26:14.492Z,96001.72
2022-07-25T00:31:18.794Z,96001.59
2022-07-25T00:36:21.978Z,95987.34
2022-07-25T00:41:24.903Z,95980.56
2022-07-25T00:46:32.672Z,95979.19
2022-07-25T00:51:38.232Z,95975.16
2022-07-25T00:56:41.864Z,95963.50
2022-07-25T01:01:48.309Z,95978.28
2022-07-25T01:06:51.510Z,95984.84
2022-07-25T01:11:54.407Z,95978.59
2022-07-25T01:16:58.662Z,95973.72
2022-07-25T01:22:02.899Z,95970.41
2022-07-25T01:27:06.002Z,95960.59
2022-07-25T01:32:08.887Z,95958.16
2022-07-25T01:37:13.115Z,95961.25
2022-07-25T01:42:16.110Z,95956.59
2022-07-25T01:47:18.981Z,95954.78
2022-07-25T01:52:23.182Z,95956.19
2022-07-25T01:57:30.790Z,95950.88
2022-07-25T02:02:33.967Z,95953.31
2022-07-25T02:07:38.167Z,95960.09
2022-07-25T02:12:41.009Z,95952.22
2022-07-25T02:17:43.874Z,95947.66
2022-07-25T02:22:48.083Z,95955.84
2022-07-25T02:27:51.066Z,95955.28
2022-07-25T02:32:54.426Z,95944.75
2022-07-25T02:37:58.903Z,95953.38
2022-07-25T02:43:01.744Z,95953.63
2022-07-25T02:48:04.919Z,95952.44
2022-07-25T02:53:09.136Z,95949.78
2022-07-25T02:58:12.343Z,95948.31
2022-07-25T03:03:15.190Z,95948.31
2022-07-25T03:08:19.408Z,95944.31
2022-07-25T03:13:22.282Z,95932.47
2022-07-25T03:18:25.134Z,95937.47
2022-07-25T03:23:31.040Z,95938.78
2022-07-25T03:28:33.908Z,95947.75
2022-07-25T03:33:36.743Z,95934.72
2022-07-25T03:38:41.306Z,95945.31
2022-07-25T03:43:44.361Z,95945.28
2022-07-25T03:48:47.229Z,95948.31
2022-07-25T03:54:03.961Z,95945.28
2022-07-25T03:59:07.571Z,95949.97
2022-07-25T04:04:11.270Z,95939.41
2022-07-25T04:09:17.146Z,95944.53
2022-07-25T04:14:20.025Z,95941.47
2022-07-25T04:19:22.892Z,95937.38
2022-07-25T04:24:30.358Z,95938.38
2022-07-25T04:29:33.225Z,95944.88
2022-07-25T04:34:36.054Z,95945.31
2022-07-25T04:39:40.285Z,95950.16
2022-07-25T04:44:43.181Z,95953.44
2022-07-25T04:49:46.104Z,95948.75
2022-07-25T04:54:50.322Z,95948.56
2022-07-25T04:59:53.218Z,95945.28
2022-07-25T05:04:56.558Z,95950.34
2022-07-25T05:10:01.770Z,95949.28
2022-07-25T05:15:04.727Z,95945.34
2022-07-25T05:20:09.061Z,95943.06
2022-07-25T05:25:13.589Z,95937.72
2022-07-25T05:30:16.442Z,95944.53
2022-07-25T05:35:19.306Z,95939.75
2022-07-25T05:40:24.328Z,95933.50
2022-07-25T05:45:27.218Z,95943.28
2022-07-25T05:50:30.110Z,95945.13
2022-07-25T05:55:34.677Z,95932.84
2022-07-25T06:00:42.908Z,95941.88
2022-07-25T06:05:46.583Z,95942.97
2022-07-25T06:10:50.814Z,95942.94
2022-07-25T06:15:54.410Z,95942.44
2022-07-25T06:20:57.310Z,95944.44
2022-07-25T06:26:01.530Z,95941.84
2022-07-25T06:31:04.212Z,95931.00
2022-07-25T06:36:07.819Z,95935.06
2022-07-25T06:41:16.279Z,95928.72
2022-07-25T06:46:19.257Z,95945.31
2022-07-25T06:51:23.680Z,95946.72
2022-07-25T06:56:31.423Z,95944.50
2022-07-25T07:01:34.351Z,95948.22
2022-07-25T07:06:38.706Z,95935.06
2022-07-25T07:11:42.918Z,95941.81
2022-07-25T07:16:45.800Z,95934.69
2022-07-25T07:21:51.517Z,95939.63
2022-07-25T07:26:56.132Z,95938.56
2022-07-25T07:31:59.013Z,95936.31
2022-07-25T07:37:02.581Z,95933.53
2022-07-25T07:42:07.041Z,95925.00
2022-07-25T07:47:14.364Z,95935.44
2022-07-25T07:52:17.527Z,95934.22
2022-07-25T07:57:21.729Z,95927.25
2022-07-25T08:02:24.608Z,95923.53
2022-07-25T08:07:27.568Z,95929.94
2022-07-25T08:12:31.779Z,95928.38
2022-07-25T08:17:34.610Z,95922.16
2022-07-25T08:22:38.908Z,95917.00
2022-07-25T08:27:43.496Z,95911.06
2022-07-25T08:32:50.942Z,95913.31
2022-07-25T08:37:55.118Z,95916.19
2022-07-25T08:43:00.062Z,95914.25
2022-07-25T08:48:02.961Z,95905.53
2022-07-25T08:53:31.471Z,95911.78
2022-07-25T08:58:30.454Z,95898.75
2022-07-25T09:03:34.123Z,95901.47
2022-07-25T09:08:36.975Z,95908.44
2022-07-25T09:13:41.661Z,95907.66
2022-07-25T09:18:45.498Z,95910.13
2022-07-25T09:23:48.338Z,95907.69
2022-07-25T09:28:54.864Z,95907.94
2022-07-25T09:33:59.531Z,95902.81
2022-07-25T09:39:05.771Z,95897.69
2022-07-25T09:44:18.476Z,95899.22
2022-07-25T09:49:21.377Z,95900.22
2022-07-25T09:54:24.312Z,95904.47
2022-07-25T09:59:28.687Z,95900.13
2022-07-25T10:04:44.598Z,95897.88
2022-07-25T10:09:50.246Z,95890.75
2022-07-25T10:15:15.888Z,95893.16
2022-07-25T10:20:29.194Z,95871.53
2022-07-25T10:25:31.829Z,95865.44
2022-07-25T10:30:38.224Z,95860.34
2022-07-25T10:35:41.621Z,95870.19
2022-07-25T10:40:46.576Z,95855.88
2022-07-25T10:45:53.715Z,95854.28
2022-07-25T10:51:00.180Z,95853.75
2022-07-25T10:56:09.336Z,95842.50
2022-07-25T11:01:15.304Z,95836.22
2022-07-25T11:06:29.950Z,95836.34
2022-07-25T11:11:37.817Z,95831.94
2022-07-25T11:16:42.165Z,95825.75
2022-07-25T11:21:46.571Z,95818.91
2022-07-25T11:26:51.310Z,95820.19
2022-07-25T11:31:58.673Z,95802.44
2022-07-25T11:37:03.153Z,95807.31
2022-07-25T11:42:09.058Z,95799.84
2022-07-25T11:47:25.350Z,95777.22
2022-07-25T11:52:30.991Z,95794.78
2022-07-25T11:57:35.641Z,95786.69
2022-07-25T12:02:40.046Z,95785.09
2022-07-25T12:07:45.825Z,95778.44
2022-07-25T12:12:51.070Z,95776.22
2022-07-25T12:17:57.027Z,95775.88
2022-07-25T12:23:01.906Z,95778.13
2022-07-25T12:28:05.766Z,95767.09
2022-07-25T12:33:10.374Z,95770.75
2022-07-25T12:38:14.369Z,95773.34
2022-07-25T12:43:17.268Z,95773.22
2022-07-25T12:48:21.503Z,95771.81
2022-07-25T12:53:24.446Z,95767.84
2022-07-25T12:58:27.431Z,95757.81
2022-07-25T13:03:31.770Z,95753.31
2022-07-25T13:08:37.747Z,95752.78
2022-07-25T13:13:40.978Z,95748.31
2022-07-25T13:18:45.301Z,95734.78
2022-07-25T13:23:48.410Z,95749.34
2022-07-25T13:28:54.286Z,95745.13
2022-07-25T13:34:02.323Z,95744.88
2022-07-25T13:39:05.875Z,95732.06
2022-07-25T13:44:09.125Z,95729.22
2022-07-25T13:49:13.608Z,95724.63
2022-07-25T13:54:16.613Z,95730.06
2022-07-25T13:59:21.643Z,95725.63
2022-07-25T14:04:26.301Z,95719.22
2022-07-25T14:09:29.179Z,95723.28
2022-07-25T14:14:32.070Z,95724.06
2022-07-25T14:19:36.324Z,95728.88
2022-07-25T14:24:39.876Z,95724.59
2022-07-25T14:29:42.788Z,95726.09
2022-07-25T14:34:47.054Z,95719.66
2022-07-25T14:39:49.905Z,95715.97
2022-07-25T14:44:52.918Z,95727.31
2022-07-25T14:49:57.131Z,95724.41
2022-07-25T14:55:00.991Z,95732.38
2022-07-25T15:00:05.397Z,95737.13
2022-07-25T15:05:10.478Z,95719.72
2022-07-25T15:10:14.393Z,95722.91
2022-07-25T15:15:17.231Z,95709.88
2022-07-25T15:20:21.632Z,95718.00
2022-07-25T15:30:48.295Z,95703.28
2022-07-25T15:35:52.826Z,95712.19
2022-07-25T15:40:55.787Z,95719.28
2022-07-25T15:45:58.696Z,95705.16
2022-07-25T15:51:02.899Z,95715.47
2022-07-25T15:56:06.264Z,95704.47
2022-07-25T16:01:09.359Z,95712.63
2022-07-25T16:06:18.627Z,95704.78
2022-07-25T16:11:21.813Z,95726.03
2022-07-25T16:16:25.799Z,95728.13
2022-07-25T16:21:30.364Z,95714.09
2022-07-25T16:26:33.285Z,95729.75
2022-07-25T16:31:36.180Z,95729.44
2022-07-25T16:36:40.505Z,95730.47
2022-07-25T16:41:44.475Z,95748.88
2022-07-25T16:46:47.422Z,95757.06
2022-07-25T16:51:52.182Z,95745.00
2022-07-25T16:56:59.425Z,95759.22
2022-07-25T17:02:03.929Z,95752.69
2022-07-25T17:07:08.220Z,95734.19
2022-07-25T17:12:11.167Z,95746.88
2022-07-25T17:17:14.424Z,95752.75
2022-07-25T17:22:18.673Z,95769.06
2022-07-25T17:27:21.624Z,95730.47
2022-07-25T17:32:29.557Z,95740.06
2022-07-25T17:37:34.344Z,95743.22
2022-07-25T17:42:40.656Z,95735.16
2022-07-25T17:47:46.184Z,95756.50
2022-07-25T17:52:52.478Z,95736.00
2022-07-25T17:57:55.547Z,95760.00
2022-07-25T18:02:59.539Z,95744.53
2022-07-25T18:08:04.051Z,95738.09
2022-07-25T18:13:09.475Z,95751.91
2022-07-25T18:18:17.023Z,95734.19
2022-07-25T18:23:27.039Z,95741.88
2022-07-25T18:28:29.908Z,95732.06
2022-07-25T18:33:32.774Z,95739.34
2022-07-25T18:38:37.355Z,95732.31
2022-07-25T18:43:40.225Z,95740.38
2022-07-25T18:48:45.817Z,95729.06
2022-07-25T18:53:50.100Z,95738.91
2022-07-25T18:58:53.013Z,95737.50
2022-07-25T19:03:56.662Z,95734.47
2022-07-25T19:09:00.875Z,95723.94
2022-07-25T19:14:03.988Z,95745.50
2022-07-25T19:19:07.153Z,95732.34
2022-07-25T19:24:11.734Z,95771.34
2022-07-25T19:29:16.420Z,95769.69
2022-07-25T19:34:19.244Z,95773.31
2022-07-25T19:39:24.516Z,95780.22
2022-07-25T19:44:27.430Z,95799.09
2022-07-25T19:49:30.268Z,95796.03
2022-07-25T19:54:34.641Z,95816.03
2022-07-25T19:59:37.682Z,95856.88
2022-07-25T20:04:40.501Z,95904.81
2022-07-25T20:09:44.714Z,95916.59
2022-07-25T20:14:47.783Z,95935.78
2022-07-25T20:19:51.819Z,95938.91
2022-07-25T20:24:56.150Z,95955.56
2022-07-25T20:30:00.113Z,95957.50
2022-07-25T20:35:03.198Z,95969.00
2022-07-25T20:40:09.836Z,95977.78
2022-07-25T20:45:13.165Z,95977.44
2022-07-25T20:50:16.104Z,95998.28
2022-07-25T21:06:46.040Z,96015.50
2022-07-25T21:11:48.995Z,95998.19
2022-07-25T21:16:52.021Z,95985.75
2022-07-25T21:21:56.348Z,95992.47
2022-07-25T21:26:59.241Z,96007.59
2022-07-25T21:32:02.173Z,96015.88
2022-07-25T21:37:06.602Z,96033.84
2022-07-25T21:42:10.045Z,96021.25
2022-07-25T21:47:13.629Z,96033.53
2022-07-25T21:52:18.294Z,96033.66
2022-07-25T21:57:21.530Z,96026.84
2022-07-25T22:02:24.774Z,96036.72
2022-07-25T22:07:29.547Z,96047.13
2022-07-25T22:12:32.352Z,96032.06
2022-07-25T22:17:48.197Z,96065.09
2022-07-25T22:22:53.998Z,96052.59
2022-07-25T22:27:56.847Z,96084.03
2022-07-25T22:32:59.691Z,96072.78
2022-07-25T22:38:03.909Z,96070.22
2022-07-25T22:43:06.798Z,96076.94
2022-07-25T22:48:09.634Z,96080.50
2022-07-25T22:53:13.914Z,96075.28
2022-07-25T22:58:16.726Z,96096.44
2022-07-25T23:03:19.620Z,96085.38
2022-07-25T23:08:23.817Z,96099.22
2022-07-25T23:13:26.734Z,96100.06
2022-07-25T23:18:29.619Z,96093.81
2022-07-25T23:23:33.970Z,96097.50
2022-07-25T23:28:36.813Z,96114.81
2022-07-25T23:33:39.652Z,96115.28
2022-07-25T23:38:43.829Z,96110.09
2022-07-25T23:43:57.128Z,96108.78
2022-07-25T23:49:01.379Z,96114.09
2022-07-25T23:54:06.157Z,96116.88
2022-07-25T23:59:09.237Z,96123.91
